sensor_id;sensor_type;location;lat;lon;timestamp;P1;durP1;ratioP1;P2;durP2;ratioP2
14611;SDS011;7392;52.078;11.650;2023-10-31T00:01:31;2.67;;;2.23;;
14611;SDS011;7392;52.078;11.650;2023-10-31T00:03:59;2.23;;;2.00;;
14611;SDS011;7392;52.078;11.650;2023-10-31T00:06:27;1.83;;;1.67;;
14611;SDS011;7392;52.078;11.650;2023-10-31T00:08:56;1.80;;;1.60;;
14611;SDS011;7392;52.078;11.650;2023-10-31T00:11:24;1.97;;;1.47;;
14611;SDS011;7392;52.078;11.650;2023-10-31T00:13:52;2.10;;;1.90;;
14611;SDS011;7392;52.078;11.650;2023-10-31T00:16:20;2.67;;;2.30;;
14611;SDS011;7392;52.078;11.650;2023-10-31T00:18:47;2.50;;;2.30;;
14611;SDS011;7392;52.078;11.650;2023-10-31T00:21:15;3.13;;;2.40;;
14611;SDS011;7392;52.078;11.650;2023-10-31T00:23:46;2.83;;;2.60;;
14611;SDS011;7392;52.078;11.650;2023-10-31T00:26:15;3.60;;;2.80;;
14611;SDS011;7392;52.078;11.650;2023-10-31T00:28:50;3.73;;;3.30;;
14611;SDS011;7392;52.078;11.650;2023-10-31T00:31:17;6.30;;;4.40;;
14611;SDS011;7392;52.078;11.650;2023-10-31T00:33:45;4.40;;;3.50;;
14611;SDS011;7392;52.078;11.650;2023-10-31T00:36:12;4.60;;;4.13;;
14611;SDS011;7392;52.078;11.650;2023-10-31T00:38:40;4.47;;;3.77;;
14611;SDS011;7392;52.078;11.650;2023-10-31T00:41:08;4.40;;;3.83;;
14611;SDS011;7392;52.078;11.650;2023-10-31T00:43:37;5.73;;;5.13;;
14611;SDS011;7392;52.078;11.650;2023-10-31T00:46:05;6.07;;;4.93;;
14611;SDS011;7392;52.078;11.650;2023-10-31T00:48:33;5.77;;;4.70;;
14611;SDS011;7392;52.078;11.650;2023-10-31T00:51:03;5.37;;;4.87;;
14611;SDS011;7392;52.078;11.650;2023-10-31T00:53:31;10.23;;;6.50;;
14611;SDS011;7392;52.078;11.650;2023-10-31T00:56:00;7.30;;;6.13;;
14611;SDS011;7392;52.078;11.650;2023-10-31T00:58:29;6.77;;;5.70;;
14611;SDS011;7392;52.078;11.650;2023-10-31T01:00:58;7.50;;;5.93;;
14611;SDS011;7392;52.078;11.650;2023-10-31T01:03:26;6.33;;;5.27;;
14611;SDS011;7392;52.078;11.650;2023-10-31T01:05:55;7.07;;;5.23;;
14611;SDS011;7392;52.078;11.650;2023-10-31T01:08:22;6.07;;;5.10;;
14611;SDS011;7392;52.078;11.650;2023-10-31T01:10:50;5.33;;;4.83;;
14611;SDS011;7392;52.078;11.650;2023-10-31T01:13:18;4.90;;;4.50;;
14611;SDS011;7392;52.078;11.650;2023-10-31T01:15:46;6.13;;;4.80;;
14611;SDS011;7392;52.078;11.650;2023-10-31T01:18:16;6.67;;;4.97;;
14611;SDS011;7392;52.078;11.650;2023-10-31T01:20:43;5.23;;;4.60;;
14611;SDS011;7392;52.078;11.650;2023-10-31T01:23:11;5.43;;;4.93;;
14611;SDS011;7392;52.078;11.650;2023-10-31T01:25:39;5.20;;;4.70;;
14611;SDS011;7392;52.078;11.650;2023-10-31T01:28:07;5.23;;;4.73;;
14611;SDS011;7392;52.078;11.650;2023-10-31T01:30:35;5.87;;;5.23;;
14611;SDS011;7392;52.078;11.650;2023-10-31T01:33:03;5.63;;;5.13;;
14611;SDS011;7392;52.078;11.650;2023-10-31T01:35:32;6.27;;;5.67;;
14611;SDS011;7392;52.078;11.650;2023-10-31T01:38:00;6.00;;;5.40;;
14611;SDS011;7392;52.078;11.650;2023-10-31T01:40:28;6.70;;;6.00;;
14611;SDS011;7392;52.078;11.650;2023-10-31T01:42:56;6.63;;;5.53;;
14611;SDS011;7392;52.078;11.650;2023-10-31T01:45:24;6.67;;;5.97;;
14611;SDS011;7392;52.078;11.650;2023-10-31T01:47:52;6.37;;;5.57;;
14611;SDS011;7392;52.078;11.650;2023-10-31T01:50:20;6.13;;;5.53;;
14611;SDS011;7392;52.078;11.650;2023-10-31T01:52:50;6.10;;;5.47;;
14611;SDS011;7392;52.078;11.650;2023-10-31T01:55:20;6.63;;;5.93;;
14611;SDS011;7392;52.078;11.650;2023-10-31T01:57:48;9.07;;;6.30;;
14611;SDS011;7392;52.078;11.650;2023-10-31T02:00:17;6.60;;;5.50;;
14611;SDS011;7392;52.078;11.650;2023-10-31T02:02:45;6.57;;;5.93;;
14611;SDS011;7392;52.078;11.650;2023-10-31T02:05:14;6.10;;;5.50;;
14611;SDS011;7392;52.078;11.650;2023-10-31T02:07:44;6.50;;;5.90;;
14611;SDS011;7392;52.078;11.650;2023-10-31T02:10:14;5.77;;;5.17;;
14611;SDS011;7392;52.078;11.650;2023-10-31T02:12:42;6.17;;;5.57;;
14611;SDS011;7392;52.078;11.650;2023-10-31T02:15:10;6.60;;;5.83;;
14611;SDS011;7392;52.078;11.650;2023-10-31T02:17:38;6.00;;;5.40;;
14611;SDS011;7392;52.078;11.650;2023-10-31T02:20:06;6.27;;;5.23;;
14611;SDS011;7392;52.078;11.650;2023-10-31T02:22:36;7.40;;;5.80;;
14611;SDS011;7392;52.078;11.650;2023-10-31T02:25:08;6.27;;;5.67;;
14611;SDS011;7392;52.078;11.650;2023-10-31T02:27:43;6.17;;;5.33;;
14611;SDS011;7392;52.078;11.650;2023-10-31T02:30:11;6.53;;;5.70;;
14611;SDS011;7392;52.078;11.650;2023-10-31T02:32:40;5.93;;;5.27;;
14611;SDS011;7392;52.078;11.650;2023-10-31T02:35:08;5.67;;;4.93;;
14611;SDS011;7392;52.078;11.650;2023-10-31T02:37:38;7.70;;;6.87;;
14611;SDS011;7392;52.078;11.650;2023-10-31T02:40:06;8.73;;;7.37;;
14611;SDS011;7392;52.078;11.650;2023-10-31T02:42:35;9.83;;;7.97;;
14611;SDS011;7392;52.078;11.650;2023-10-31T02:45:05;7.43;;;6.37;;
14611;SDS011;7392;52.078;11.650;2023-10-31T02:47:34;8.30;;;6.13;;
14611;SDS011;7392;52.078;11.650;2023-10-31T02:50:02;8.23;;;6.60;;
14611;SDS011;7392;52.078;11.650;2023-10-31T02:52:30;7.13;;;5.80;;
14611;SDS011;7392;52.078;11.650;2023-10-31T02:54:59;6.67;;;5.63;;
14611;SDS011;7392;52.078;11.650;2023-10-31T02:57:27;6.93;;;6.20;;
14611;SDS011;7392;52.078;11.650;2023-10-31T02:59:54;7.70;;;6.60;;
14611;SDS011;7392;52.078;11.650;2023-10-31T03:02:22;8.23;;;7.00;;
14611;SDS011;7392;52.078;11.650;2023-10-31T03:04:50;9.10;;;7.33;;
14611;SDS011;7392;52.078;11.650;2023-10-31T03:07:18;10.00;;;8.90;;
14611;SDS011;7392;52.078;11.650;2023-10-31T03:09:47;11.47;;;9.00;;
14611;SDS011;7392;52.078;11.650;2023-10-31T03:12:16;7.77;;;6.97;;
14611;SDS011;7392;52.078;11.650;2023-10-31T03:14:44;6.93;;;6.07;;
14611;SDS011;7392;52.078;11.650;2023-10-31T03:17:12;7.30;;;5.50;;
14611;SDS011;7392;52.078;11.650;2023-10-31T03:19:40;5.70;;;5.10;;
14611;SDS011;7392;52.078;11.650;2023-10-31T03:22:08;5.50;;;5.00;;
14611;SDS011;7392;52.078;11.650;2023-10-31T03:24:36;4.93;;;4.43;;
14611;SDS011;7392;52.078;11.650;2023-10-31T03:27:03;4.30;;;3.90;;
14611;SDS011;7392;52.078;11.650;2023-10-31T03:29:33;4.77;;;4.20;;
14611;SDS011;7392;52.078;11.650;2023-10-31T03:32:01;8.00;;;5.30;;
14611;SDS011;7392;52.078;11.650;2023-10-31T03:34:28;5.57;;;5.00;;
14611;SDS011;7392;52.078;11.650;2023-10-31T03:36:56;6.60;;;5.70;;
14611;SDS011;7392;52.078;11.650;2023-10-31T03:39:24;5.83;;;5.30;;
14611;SDS011;7392;52.078;11.650;2023-10-31T03:41:52;6.10;;;5.17;;
14611;SDS011;7392;52.078;11.650;2023-10-31T03:44:23;5.73;;;4.73;;
14611;SDS011;7392;52.078;11.650;2023-10-31T03:46:52;4.60;;;4.20;;
14611;SDS011;7392;52.078;11.650;2023-10-31T03:49:20;5.20;;;4.20;;
14611;SDS011;7392;52.078;11.650;2023-10-31T03:51:48;5.37;;;4.40;;
14611;SDS011;7392;52.078;11.650;2023-10-31T03:54:16;6.17;;;5.00;;
14611;SDS011;7392;52.078;11.650;2023-10-31T03:56:44;4.87;;;4.37;;
14611;SDS011;7392;52.078;11.650;2023-10-31T03:59:12;5.83;;;4.70;;
14611;SDS011;7392;52.078;11.650;2023-10-31T04:01:40;8.47;;;6.50;;
14611;SDS011;7392;52.078;11.650;2023-10-31T04:04:09;7.73;;;6.47;;
14611;SDS011;7392;52.078;11.650;2023-10-31T04:06:37;7.93;;;5.73;;
14611;SDS011;7392;52.078;11.650;2023-10-31T04:09:07;6.87;;;6.07;;
14611;SDS011;7392;52.078;11.650;2023-10-31T04:11:35;6.73;;;6.00;;
14611;SDS011;7392;52.078;11.650;2023-10-31T04:14:02;5.33;;;4.80;;
14611;SDS011;7392;52.078;11.650;2023-10-31T04:16:32;5.47;;;4.97;;
14611;SDS011;7392;52.078;11.650;2023-10-31T04:19:04;6.07;;;5.47;;
14611;SDS011;7392;52.078;11.650;2023-10-31T04:21:33;6.57;;;5.63;;
14611;SDS011;7392;52.078;11.650;2023-10-31T04:24:03;6.63;;;5.23;;
14611;SDS011;7392;52.078;11.650;2023-10-31T04:26:31;6.13;;;5.37;;
14611;SDS011;7392;52.078;11.650;2023-10-31T04:28:59;7.00;;;6.30;;
14611;SDS011;7392;52.078;11.650;2023-10-31T04:31:27;6.10;;;5.47;;
14611;SDS011;7392;52.078;11.650;2023-10-31T04:34:07;5.73;;;5.10;;
14611;SDS011;7392;52.078;11.650;2023-10-31T04:36:36;5.73;;;5.13;;
14611;SDS011;7392;52.078;11.650;2023-10-31T04:39:04;5.10;;;4.60;;
14611;SDS011;7392;52.078;11.650;2023-10-31T04:41:32;5.13;;;4.60;;
14611;SDS011;7392;52.078;11.650;2023-10-31T04:43:59;5.37;;;4.43;;
14611;SDS011;7392;52.078;11.650;2023-10-31T04:46:27;4.13;;;3.73;;
14611;SDS011;7392;52.078;11.650;2023-10-31T04:48:55;4.63;;;3.97;;
14611;SDS011;7392;52.078;11.650;2023-10-31T04:51:23;4.50;;;3.97;;
14611;SDS011;7392;52.078;11.650;2023-10-31T04:53:52;4.47;;;4.00;;
14611;SDS011;7392;52.078;11.650;2023-10-31T04:56:20;4.83;;;4.13;;
14611;SDS011;7392;52.078;11.650;2023-10-31T04:58:48;3.80;;;3.50;;
14611;SDS011;7392;52.078;11.650;2023-10-31T05:01:15;4.20;;;3.63;;
14611;SDS011;7392;52.078;11.650;2023-10-31T05:03:43;4.77;;;4.23;;
14611;SDS011;7392;52.078;11.650;2023-10-31T05:06:18;4.37;;;3.80;;
14611;SDS011;7392;52.078;11.650;2023-10-31T05:08:47;3.83;;;3.40;;
14611;SDS011;7392;52.078;11.650;2023-10-31T05:11:17;3.77;;;3.10;;
14611;SDS011;7392;52.078;11.650;2023-10-31T05:13:45;3.77;;;3.10;;
14611;SDS011;7392;52.078;11.650;2023-10-31T05:16:13;3.50;;;3.20;;
14611;SDS011;7392;52.078;11.650;2023-10-31T05:18:41;4.00;;;3.13;;
14611;SDS011;7392;52.078;11.650;2023-10-31T05:21:09;2.93;;;2.63;;
14611;SDS011;7392;52.078;11.650;2023-10-31T05:23:37;4.00;;;2.93;;
14611;SDS011;7392;52.078;11.650;2023-10-31T05:26:05;3.30;;;2.70;;
14611;SDS011;7392;52.078;11.650;2023-10-31T05:28:34;3.80;;;2.70;;
14611;SDS011;7392;52.078;11.650;2023-10-31T05:31:02;3.07;;;2.70;;
14611;SDS011;7392;52.078;11.650;2023-10-31T05:33:30;4.23;;;2.50;;
14611;SDS011;7392;52.078;11.650;2023-10-31T05:35:58;2.70;;;2.50;;
14611;SDS011;7392;52.078;11.650;2023-10-31T05:38:26;2.80;;;2.60;;
14611;SDS011;7392;52.078;11.650;2023-10-31T05:40:54;4.00;;;2.40;;
14611;SDS011;7392;52.078;11.650;2023-10-31T05:43:22;2.47;;;2.20;;
14611;SDS011;7392;52.078;11.650;2023-10-31T05:45:51;2.37;;;2.13;;
14611;SDS011;7392;52.078;11.650;2023-10-31T05:48:19;1.90;;;1.80;;
14611;SDS011;7392;52.078;11.650;2023-10-31T05:50:47;1.93;;;1.70;;
14611;SDS011;7392;52.078;11.650;2023-10-31T05:53:15;1.67;;;1.57;;
14611;SDS011;7392;52.078;11.650;2023-10-31T05:55:42;1.77;;;1.67;;
14611;SDS011;7392;52.078;11.650;2023-10-31T05:58:10;2.40;;;1.50;;
14611;SDS011;7392;52.078;11.650;2023-10-31T06:00:38;1.20;;;1.10;;
14611;SDS011;7392;52.078;11.650;2023-10-31T06:03:08;2.20;;;0.80;;
14611;SDS011;7392;52.078;11.650;2023-10-31T06:05:36;0.87;;;0.87;;
14611;SDS011;7392;52.078;11.650;2023-10-31T06:08:04;0.90;;;0.90;;
14611;SDS011;7392;52.078;11.650;2023-10-31T06:10:31;1.00;;;0.90;;
14611;SDS011;7392;52.078;11.650;2023-10-31T06:12:59;0.80;;;0.80;;
14611;SDS011;7392;52.078;11.650;2023-10-31T06:15:27;0.90;;;0.90;;
14611;SDS011;7392;52.078;11.650;2023-10-31T06:17:55;1.43;;;0.70;;
14611;SDS011;7392;52.078;11.650;2023-10-31T06:20:24;1.93;;;0.67;;
14611;SDS011;7392;52.078;11.650;2023-10-31T06:22:52;0.57;;;0.50;;
14611;SDS011;7392;52.078;11.650;2023-10-31T06:25:19;0.73;;;0.70;;
14611;SDS011;7392;52.078;11.650;2023-10-31T06:27:47;0.50;;;0.50;;
14611;SDS011;7392;52.078;11.650;2023-10-31T06:30:15;0.57;;;0.57;;
14611;SDS011;7392;52.078;11.650;2023-10-31T06:32:54;0.70;;;0.67;;
14611;SDS011;7392;52.078;11.650;2023-10-31T06:35:23;1.93;;;0.63;;
14611;SDS011;7392;52.078;11.650;2023-10-31T06:37:51;1.47;;;0.63;;
14611;SDS011;7392;52.078;11.650;2023-10-31T06:40:21;0.77;;;0.77;;
14611;SDS011;7392;52.078;11.650;2023-10-31T06:42:49;0.50;;;0.50;;
14611;SDS011;7392;52.078;11.650;2023-10-31T06:45:17;0.60;;;0.60;;
14611;SDS011;7392;52.078;11.650;2023-10-31T06:47:45;0.50;;;0.50;;
14611;SDS011;7392;52.078;11.650;2023-10-31T06:50:12;2.53;;;0.83;;
14611;SDS011;7392;52.078;11.650;2023-10-31T06:52:46;0.90;;;0.77;;
14611;SDS011;7392;52.078;11.650;2023-10-31T06:55:14;0.53;;;0.50;;
14611;SDS011;7392;52.078;11.650;2023-10-31T06:57:42;0.80;;;0.80;;
14611;SDS011;7392;52.078;11.650;2023-10-31T07:00:10;0.73;;;0.70;;
14611;SDS011;7392;52.078;11.650;2023-10-31T07:02:39;2.10;;;0.70;;
14611;SDS011;7392;52.078;11.650;2023-10-31T07:05:07;1.03;;;0.77;;
14611;SDS011;7392;52.078;11.650;2023-10-31T07:07:35;1.37;;;0.90;;
14611;SDS011;7392;52.078;11.650;2023-10-31T07:10:05;0.93;;;0.70;;
14611;SDS011;7392;52.078;11.650;2023-10-31T07:12:35;0.90;;;0.70;;
14611;SDS011;7392;52.078;11.650;2023-10-31T07:15:02;0.60;;;0.60;;
14611;SDS011;7392;52.078;11.650;2023-10-31T07:17:31;0.80;;;0.57;;
14611;SDS011;7392;52.078;11.650;2023-10-31T07:19:59;0.67;;;0.67;;
14611;SDS011;7392;52.078;11.650;2023-10-31T07:22:27;2.93;;;0.80;;
14611;SDS011;7392;52.078;11.650;2023-10-31T07:24:55;0.60;;;0.60;;
14611;SDS011;7392;52.078;11.650;2023-10-31T07:27:25;2.80;;;1.10;;
14611;SDS011;7392;52.078;11.650;2023-10-31T07:29:53;0.87;;;0.77;;
14611;SDS011;7392;52.078;11.650;2023-10-31T07:32:21;1.33;;;0.90;;
14611;SDS011;7392;52.078;11.650;2023-10-31T07:34:48;1.23;;;0.83;;
14611;SDS011;7392;52.078;11.650;2023-10-31T07:37:17;1.47;;;0.90;;
14611;SDS011;7392;52.078;11.650;2023-10-31T07:39:44;1.43;;;0.87;;
14611;SDS011;7392;52.078;11.650;2023-10-31T07:42:12;2.20;;;0.80;;
14611;SDS011;7392;52.078;11.650;2023-10-31T07:44:41;0.80;;;0.80;;
14611;SDS011;7392;52.078;11.650;2023-10-31T07:47:09;0.77;;;0.77;;
14611;SDS011;7392;52.078;11.650;2023-10-31T07:49:37;2.00;;;1.10;;
14611;SDS011;7392;52.078;11.650;2023-10-31T07:52:05;1.53;;;1.17;;
14611;SDS011;7392;52.078;11.650;2023-10-31T07:54:33;0.90;;;0.80;;
14611;SDS011;7392;52.078;11.650;2023-10-31T07:57:01;1.10;;;0.90;;
14611;SDS011;7392;52.078;11.650;2023-10-31T07:59:28;1.33;;;1.00;;
14611;SDS011;7392;52.078;11.650;2023-10-31T08:01:58;1.70;;;1.30;;
14611;SDS011;7392;52.078;11.650;2023-10-31T08:04:25;1.50;;;1.30;;
14611;SDS011;7392;52.078;11.650;2023-10-31T08:06:54;1.33;;;1.23;;
14611;SDS011;7392;52.078;11.650;2023-10-31T08:09:22;1.50;;;1.40;;
14611;SDS011;7392;52.078;11.650;2023-10-31T08:11:50;2.73;;;1.40;;
14611;SDS011;7392;52.078;11.650;2023-10-31T08:14:18;1.80;;;1.53;;
14611;SDS011;7392;52.078;11.650;2023-10-31T08:16:46;2.37;;;1.87;;
14611;SDS011;7392;52.078;11.650;2023-10-31T08:19:15;3.10;;;1.90;;
14611;SDS011;7392;52.078;11.650;2023-10-31T08:21:43;1.90;;;1.70;;
14611;SDS011;7392;52.078;11.650;2023-10-31T08:24:14;2.50;;;2.00;;
14611;SDS011;7392;52.078;11.650;2023-10-31T08:26:41;2.43;;;2.03;;
14611;SDS011;7392;52.078;11.650;2023-10-31T08:29:10;2.03;;;1.87;;
14611;SDS011;7392;52.078;11.650;2023-10-31T08:31:37;2.20;;;2.00;;
14611;SDS011;7392;52.078;11.650;2023-10-31T08:34:05;4.13;;;2.20;;
14611;SDS011;7392;52.078;11.650;2023-10-31T08:36:34;3.53;;;2.10;;
14611;SDS011;7392;52.078;11.650;2023-10-31T08:39:02;1.90;;;1.70;;
14611;SDS011;7392;52.078;11.650;2023-10-31T08:41:30;2.10;;;1.90;;
14611;SDS011;7392;52.078;11.650;2023-10-31T08:43:58;2.53;;;1.80;;
14611;SDS011;7392;52.078;11.650;2023-10-31T08:46:29;2.17;;;1.97;;
14611;SDS011;7392;52.078;11.650;2023-10-31T08:48:57;2.33;;;2.03;;
14611;SDS011;7392;52.078;11.650;2023-10-31T08:51:25;2.17;;;1.90;;
14611;SDS011;7392;52.078;11.650;2023-10-31T08:53:54;2.27;;;1.90;;
14611;SDS011;7392;52.078;11.650;2023-10-31T08:56:22;1.67;;;1.50;;
14611;SDS011;7392;52.078;11.650;2023-10-31T08:58:50;2.23;;;1.63;;
14611;SDS011;7392;52.078;11.650;2023-10-31T09:01:18;3.03;;;1.70;;
14611;SDS011;7392;52.078;11.650;2023-10-31T09:03:46;2.00;;;1.50;;
14611;SDS011;7392;52.078;11.650;2023-10-31T09:06:14;1.80;;;1.40;;
14611;SDS011;7392;52.078;11.650;2023-10-31T09:08:41;1.50;;;1.40;;
14611;SDS011;7392;52.078;11.650;2023-10-31T09:11:11;1.40;;;1.30;;
14611;SDS011;7392;52.078;11.650;2023-10-31T09:13:39;1.87;;;1.40;;
14611;SDS011;7392;52.078;11.650;2023-10-31T09:16:07;1.50;;;1.30;;
14611;SDS011;7392;52.078;11.650;2023-10-31T09:18:36;2.10;;;1.40;;
14611;SDS011;7392;52.078;11.650;2023-10-31T09:21:04;1.50;;;1.40;;
14611;SDS011;7392;52.078;11.650;2023-10-31T09:23:32;1.33;;;1.23;;
14611;SDS011;7392;52.078;11.650;2023-10-31T09:26:00;1.30;;;1.20;;
14611;SDS011;7392;52.078;11.650;2023-10-31T09:28:30;2.30;;;1.20;;
14611;SDS011;7392;52.078;11.650;2023-10-31T09:30:58;1.70;;;1.03;;
14611;SDS011;7392;52.078;11.650;2023-10-31T09:33:28;1.67;;;1.27;;
14611;SDS011;7392;52.078;11.650;2023-10-31T09:35:55;3.10;;;1.70;;
14611;SDS011;7392;52.078;11.650;2023-10-31T09:38:23;1.30;;;1.20;;
14611;SDS011;7392;52.078;11.650;2023-10-31T09:40:54;1.43;;;0.90;;
14611;SDS011;7392;52.078;11.650;2023-10-31T09:43:21;3.57;;;1.27;;
14611;SDS011;7392;52.078;11.650;2023-10-31T09:45:51;1.20;;;1.10;;
14611;SDS011;7392;52.078;11.650;2023-10-31T09:48:19;2.20;;;1.20;;
14611;SDS011;7392;52.078;11.650;2023-10-31T09:50:47;1.50;;;1.40;;
14611;SDS011;7392;52.078;11.650;2023-10-31T09:53:16;1.30;;;1.10;;
14611;SDS011;7392;52.078;11.650;2023-10-31T09:55:44;1.27;;;1.17;;
14611;SDS011;7392;52.078;11.650;2023-10-31T09:58:13;1.30;;;1.20;;
14611;SDS011;7392;52.078;11.650;2023-10-31T10:00:41;1.20;;;1.10;;
14611;SDS011;7392;52.078;11.650;2023-10-31T10:03:11;0.80;;;0.77;;
14611;SDS011;7392;52.078;11.650;2023-10-31T10:05:39;1.13;;;0.90;;
14611;SDS011;7392;52.078;11.650;2023-10-31T10:08:07;1.20;;;1.10;;
14611;SDS011;7392;52.078;11.650;2023-10-31T10:10:35;1.03;;;0.90;;
14611;SDS011;7392;52.078;11.650;2023-10-31T10:13:03;1.07;;;0.90;;
14611;SDS011;7392;52.078;11.650;2023-10-31T10:15:42;2.60;;;0.70;;
14611;SDS011;7392;52.078;11.650;2023-10-31T10:18:12;0.50;;;0.50;;
14611;SDS011;7392;52.078;11.650;2023-10-31T10:20:55;0.90;;;0.90;;
14611;SDS011;7392;52.078;11.650;2023-10-31T10:23:24;0.57;;;0.47;;
14611;SDS011;7392;52.078;11.650;2023-10-31T10:25:53;0.90;;;0.70;;
14611;SDS011;7392;52.078;11.650;2023-10-31T10:28:22;3.30;;;0.70;;
14611;SDS011;7392;52.078;11.650;2023-10-31T10:30:51;0.50;;;0.50;;
14611;SDS011;7392;52.078;11.650;2023-10-31T10:33:24;0.60;;;0.60;;
14611;SDS011;7392;52.078;11.650;2023-10-31T10:35:52;0.63;;;0.63;;
14611;SDS011;7392;52.078;11.650;2023-10-31T10:38:23;0.60;;;0.57;;
14611;SDS011;7392;52.078;11.650;2023-10-31T10:40:51;0.80;;;0.80;;
14611;SDS011;7392;52.078;11.650;2023-10-31T10:43:23;0.80;;;0.73;;
14611;SDS011;7392;52.078;11.650;2023-10-31T10:45:52;0.77;;;0.77;;
14611;SDS011;7392;52.078;11.650;2023-10-31T10:48:25;0.73;;;0.73;;
14611;SDS011;7392;52.078;11.650;2023-10-31T10:50:57;0.90;;;0.70;;
14611;SDS011;7392;52.078;11.650;2023-10-31T10:53:29;1.03;;;0.80;;
14611;SDS011;7392;52.078;11.650;2023-10-31T10:56:07;0.90;;;0.90;;
14611;SDS011;7392;52.078;11.650;2023-10-31T10:58:41;2.60;;;0.80;;
14611;SDS011;7392;52.078;11.650;2023-10-31T11:01:18;0.73;;;0.73;;
14611;SDS011;7392;52.078;11.650;2023-10-31T11:03:48;0.97;;;0.87;;
14611;SDS011;7392;52.078;11.650;2023-10-31T11:06:16;1.13;;;1.03;;
14611;SDS011;7392;52.078;11.650;2023-10-31T11:08:46;2.10;;;1.27;;
14611;SDS011;7392;52.078;11.650;2023-10-31T11:11:15;1.33;;;1.00;;
14611;SDS011;7392;52.078;11.650;2023-10-31T11:13:43;0.97;;;0.73;;
14611;SDS011;7392;52.078;11.650;2023-10-31T11:16:21;1.67;;;0.97;;
14611;SDS011;7392;52.078;11.650;2023-10-31T11:19:03;0.87;;;0.70;;
14611;SDS011;7392;52.078;11.650;2023-10-31T11:21:31;0.50;;;0.50;;
14611;SDS011;7392;52.078;11.650;2023-10-31T11:23:59;4.50;;;0.93;;
14611;SDS011;7392;52.078;11.650;2023-10-31T11:26:28;0.90;;;0.80;;
14611;SDS011;7392;52.078;11.650;2023-10-31T11:29:05;1.27;;;0.77;;
14611;SDS011;7392;52.078;11.650;2023-10-31T11:31:36;1.00;;;0.90;;
14611;SDS011;7392;52.078;11.650;2023-10-31T11:34:07;0.67;;;0.67;;
14611;SDS011;7392;52.078;11.650;2023-10-31T11:36:36;0.70;;;0.60;;
14611;SDS011;7392;52.078;11.650;2023-10-31T11:39:12;1.00;;;0.57;;
14611;SDS011;7392;52.078;11.650;2023-10-31T11:41:40;0.77;;;0.77;;
14611;SDS011;7392;52.078;11.650;2023-10-31T11:44:15;0.57;;;0.53;;
14611;SDS011;7392;52.078;11.650;2023-10-31T11:46:44;0.93;;;0.33;;
14611;SDS011;7392;52.078;11.650;2023-10-31T11:49:17;0.93;;;0.43;;
14611;SDS011;7392;52.078;11.650;2023-10-31T11:51:45;0.50;;;0.50;;
14611;SDS011;7392;52.078;11.650;2023-10-31T11:54:14;1.13;;;0.40;;
14611;SDS011;7392;52.078;11.650;2023-10-31T11:56:50;0.30;;;0.30;;
14611;SDS011;7392;52.078;11.650;2023-10-31T11:59:18;1.33;;;0.60;;
14611;SDS011;7392;52.078;11.650;2023-10-31T12:01:46;3.43;;;0.37;;
14611;SDS011;7392;52.078;11.650;2023-10-31T12:04:22;1.13;;;0.50;;
14611;SDS011;7392;52.078;11.650;2023-10-31T12:06:57;0.50;;;0.50;;
14611;SDS011;7392;52.078;11.650;2023-10-31T12:09:26;0.50;;;0.50;;
14611;SDS011;7392;52.078;11.650;2023-10-31T12:11:57;0.47;;;0.40;;
14611;SDS011;7392;52.078;11.650;2023-10-31T12:14:25;0.47;;;0.47;;
14611;SDS011;7392;52.078;11.650;2023-10-31T12:16:53;0.70;;;0.60;;
14611;SDS011;7392;52.078;11.650;2023-10-31T12:19:23;0.90;;;0.60;;
14611;SDS011;7392;52.078;11.650;2023-10-31T12:21:50;0.50;;;0.50;;
14611;SDS011;7392;52.078;11.650;2023-10-31T12:24:18;0.57;;;0.40;;
14611;SDS011;7392;52.078;11.650;2023-10-31T12:26:46;1.87;;;0.50;;
14611;SDS011;7392;52.078;11.650;2023-10-31T12:29:15;0.83;;;0.50;;
14611;SDS011;7392;52.078;11.650;2023-10-31T12:31:44;0.87;;;0.40;;
14611;SDS011;7392;52.078;11.650;2023-10-31T12:34:14;0.50;;;0.40;;
14611;SDS011;7392;52.078;11.650;2023-10-31T12:36:44;2.03;;;0.40;;
14611;SDS011;7392;52.078;11.650;2023-10-31T12:39:14;1.30;;;0.90;;
14611;SDS011;7392;52.078;11.650;2023-10-31T12:41:44;1.00;;;0.60;;
14611;SDS011;7392;52.078;11.650;2023-10-31T12:44:13;1.37;;;0.40;;
14611;SDS011;7392;52.078;11.650;2023-10-31T12:46:45;1.70;;;0.60;;
14611;SDS011;7392;52.078;11.650;2023-10-31T12:49:16;1.10;;;0.70;;
14611;SDS011;7392;52.078;11.650;2023-10-31T12:51:56;1.47;;;0.57;;
14611;SDS011;7392;52.078;11.650;2023-10-31T12:54:29;0.90;;;0.60;;
14611;SDS011;7392;52.078;11.650;2023-10-31T12:57:01;1.20;;;0.70;;
14611;SDS011;7392;52.078;11.650;2023-10-31T12:59:34;0.60;;;0.60;;
14611;SDS011;7392;52.078;11.650;2023-10-31T13:02:06;1.03;;;0.73;;
14611;SDS011;7392;52.078;11.650;2023-10-31T13:04:35;1.30;;;0.60;;
14611;SDS011;7392;52.078;11.650;2023-10-31T13:07:05;0.50;;;0.50;;
14611;SDS011;7392;52.078;11.650;2023-10-31T13:09:35;0.67;;;0.67;;
14611;SDS011;7392;52.078;11.650;2023-10-31T13:12:06;1.07;;;0.60;;
14611;SDS011;7392;52.078;11.650;2023-10-31T13:14:35;1.30;;;0.80;;
14611;SDS011;7392;52.078;11.650;2023-10-31T13:17:04;1.20;;;0.73;;
14611;SDS011;7392;52.078;11.650;2023-10-31T13:19:33;0.63;;;0.63;;
14611;SDS011;7392;52.078;11.650;2023-10-31T13:22:00;1.20;;;1.10;;
14611;SDS011;7392;52.078;11.650;2023-10-31T13:24:29;2.20;;;1.60;;
14611;SDS011;7392;52.078;11.650;2023-10-31T13:26:57;1.67;;;1.40;;
14611;SDS011;7392;52.078;11.650;2023-10-31T13:29:26;1.20;;;1.00;;
14611;SDS011;7392;52.078;11.650;2023-10-31T13:31:54;1.10;;;0.90;;
14611;SDS011;7392;52.078;11.650;2023-10-31T13:34:22;1.87;;;1.00;;
14611;SDS011;7392;52.078;11.650;2023-10-31T13:36:50;2.17;;;1.00;;
14611;SDS011;7392;52.078;11.650;2023-10-31T13:39:20;1.50;;;1.20;;
14611;SDS011;7392;52.078;11.650;2023-10-31T13:41:50;2.37;;;1.17;;
14611;SDS011;7392;52.078;11.650;2023-10-31T13:44:18;1.47;;;1.10;;
14611;SDS011;7392;52.078;11.650;2023-10-31T13:46:46;1.13;;;1.03;;
14611;SDS011;7392;52.078;11.650;2023-10-31T13:49:14;1.30;;;1.10;;
14611;SDS011;7392;52.078;11.650;2023-10-31T13:51:42;1.77;;;1.40;;
14611;SDS011;7392;52.078;11.650;2023-10-31T13:54:10;1.67;;;1.40;;
14611;SDS011;7392;52.078;11.650;2023-10-31T13:56:38;1.03;;;0.93;;
14611;SDS011;7392;52.078;11.650;2023-10-31T13:59:07;2.20;;;1.10;;
14611;SDS011;7392;52.078;11.650;2023-10-31T14:01:35;2.70;;;1.37;;
14611;SDS011;7392;52.078;11.650;2023-10-31T14:04:03;0.90;;;0.80;;
14611;SDS011;7392;52.078;11.650;2023-10-31T14:06:31;2.20;;;1.60;;
14611;SDS011;7392;52.078;11.650;2023-10-31T14:08:59;2.03;;;1.20;;
14611;SDS011;7392;52.078;11.650;2023-10-31T14:11:31;1.80;;;1.50;;
14611;SDS011;7392;52.078;11.650;2023-10-31T14:13:59;1.90;;;1.67;;
14611;SDS011;7392;52.078;11.650;2023-10-31T14:16:31;3.20;;;1.40;;
14611;SDS011;7392;52.078;11.650;2023-10-31T14:18:58;1.73;;;1.60;;
14611;SDS011;7392;52.078;11.650;2023-10-31T14:21:28;1.43;;;1.33;;
14611;SDS011;7392;52.078;11.650;2023-10-31T14:23:56;2.13;;;1.40;;
14611;SDS011;7392;52.078;11.650;2023-10-31T14:26:36;3.60;;;2.17;;
14611;SDS011;7392;52.078;11.650;2023-10-31T14:29:05;2.50;;;1.70;;
14611;SDS011;7392;52.078;11.650;2023-10-31T14:31:39;1.37;;;1.27;;
14611;SDS011;7392;52.078;11.650;2023-10-31T14:34:08;1.50;;;1.20;;
14611;SDS011;7392;52.078;11.650;2023-10-31T14:36:35;1.53;;;1.30;;
14611;SDS011;7392;52.078;11.650;2023-10-31T14:39:03;2.73;;;1.70;;
14611;SDS011;7392;52.078;11.650;2023-10-31T14:41:32;1.67;;;1.57;;
14611;SDS011;7392;52.078;11.650;2023-10-31T14:44:01;1.90;;;1.40;;
14611;SDS011;7392;52.078;11.650;2023-10-31T14:46:29;1.57;;;1.30;;
14611;SDS011;7392;52.078;11.650;2023-10-31T14:49:00;2.03;;;1.70;;
14611;SDS011;7392;52.078;11.650;2023-10-31T14:51:29;2.37;;;1.60;;
14611;SDS011;7392;52.078;11.650;2023-10-31T14:53:56;1.50;;;1.40;;
14611;SDS011;7392;52.078;11.650;2023-10-31T14:56:25;1.97;;;1.50;;
14611;SDS011;7392;52.078;11.650;2023-10-31T14:58:56;1.50;;;1.40;;